Time;durP1;ratioP1;P1;durP2;ratioP2;P2;SDS_P1;SDS_P2;PMS_P1;PMS_P2;Temp;Humidity;BMP_temperature;BMP_pressure;BME280_temperature;BME280_humidity;BME280_pressure;Samples;Min_cycle;Max_cycle;Signal;HPM_P1;HPM_P2
2022/12/05 00:01:17;;;;;;;19.20;14.63;;;;;;;3.77;100.00;93932.66;5109614;28;20043;-69
2022/12/05 00:03:44;;;;;;;22.10;15.48;;;;;;;3.77;100.00;93937.72;5109440;28;20120;-69
2022/12/05 00:06:11;;;;;;;21.67;15.35;;;;;;;3.71;100.00;93936.59;5109425;28;20048;-69
2022/12/05 00:08:39;;;;;;;22.75;14.70;;;;;;;3.69;100.00;93934.19;5108784;28;20051;-69
2022/12/05 00:11:12;;;;;;;19.88;14.35;;;;;;;3.69;100.00;93935.94;5109363;28;20563;-69
2022/12/05 00:13:40;;;;;;;18.95;13.45;;;;;;;3.48;100.00;93922.63;5109201;28;20039;-69
2022/12/05 00:16:08;;;;;;;18.58;13.18;;;;;;;3.50;100.00;93926.75;5109085;28;20514;-69
2022/12/05 00:18:35;;;;;;;19.67;13.23;;;;;;;3.44;100.00;93938.31;5109493;28;20070;-69
2022/12/05 00:21:02;;;;;;;20.27;14.05;;;;;;;3.41;100.00;93941.94;5109142;28;20073;-69
2022/12/05 00:23:28;;;;;;;20.67;14.38;;;;;;;3.38;100.00;93946.53;5108891;28;20051;-69
2022/12/05 00:25:56;;;;;;;21.10;14.55;;;;;;;3.42;100.00;93937.69;5109140;28;20052;-70
2022/12/05 00:28:23;;;;;;;19.15;13.23;;;;;;;3.39;100.00;93938.75;5109065;28;20055;-69
2022/12/05 00:30:50;;;;;;;20.63;14.48;;;;;;;3.40;100.00;93939.53;5113046;28;20039;-69
2022/12/05 00:33:17;;;;;;;21.40;14.77;;;;;;;3.40;100.00;93935.28;5113577;27;20050;-69
2022/12/05 00:35:43;;;;;;;22.20;14.48;;;;;;;3.38;100.00;93938.91;5113372;28;20457;-69
2022/12/05 00:38:10;;;;;;;22.48;14.50;;;;;;;3.38;100.00;93936.38;5113087;28;20055;-69
2022/12/05 00:40:37;;;;;;;21.00;14.10;;;;;;;3.46;100.00;93938.94;5113324;28;20043;-69
2022/12/05 00:43:05;;;;;;;20.60;14.27;;;;;;;3.53;100.00;93946.78;5113242;28;20052;-69
2022/12/05 00:45:33;;;;;;;21.63;15.75;;;;;;;3.56;100.00;93939.66;5113175;28;20188;-69
2022/12/05 00:47:59;;;;;;;21.38;14.40;;;;;;;3.59;100.00;93941.94;5112844;28;20051;-69
2022/12/05 00:50:26;;;;;;;21.50;15.52;;;;;;;3.61;100.00;93939.22;5113187;28;20051;-69
2022/12/05 00:52:53;;;;;;;22.52;13.95;;;;;;;3.67;100.00;93931.03;5113206;28;20044;-70
2022/12/05 00:55:20;;;;;;;18.25;13.63;;;;;;;3.66;100.00;93924.31;5112992;28;20056;-69
2022/12/05 00:57:46;;;;;;;20.98;14.43;;;;;;;3.69;100.00;93933.38;5113090;28;20047;-69
2022/12/05 01:00:15;;;;;;;21.08;14.25;;;;;;;3.69;100.00;93925.78;5113345;28;20047;-69
2022/12/05 01:02:42;;;;;;;19.67;12.93;;;;;;;3.57;100.00;93922.69;5109232;28;20071;-69
2022/12/05 01:05:09;;;;;;;19.23;14.30;;;;;;;3.46;100.00;93916.09;5110851;28;20055;-69
2022/12/05 01:07:36;;;;;;;19.88;13.55;;;;;;;3.45;100.00;93919.59;5112020;28;20113;-69
2022/12/05 01:10:03;;;;;;;20.83;14.43;;;;;;;3.40;100.00;93909.88;5112368;28;20499;-69
2022/12/05 01:12:30;;;;;;;22.05;14.65;;;;;;;3.52;100.00;93915.50;5112310;28;20140;-69
2022/12/05 01:14:57;;;;;;;25.05;15.50;;;;;;;3.56;100.00;93919.34;5112695;28;20151;-69
2022/12/05 01:17:25;;;;;;;24.77;15.70;;;;;;;3.57;100.00;93903.16;5112162;27;20047;-69
2022/12/05 01:19:52;;;;;;;22.23;15.43;;;;;;;3.61;100.00;93916.34;5112558;28;20513;-69
2022/12/05 01:22:19;;;;;;;22.25;14.80;;;;;;;3.68;100.00;93919.09;5112472;28;20039;-69
2022/12/05 01:24:45;;;;;;;20.98;13.93;;;;;;;3.71;100.00;93917.06;5112093;28;20563;-69
2022/12/05 01:27:12;;;;;;;19.73;14.13;;;;;;;3.82;100.00;93912.66;5112084;28;20039;-69
2022/12/05 01:29:39;;;;;;;23.63;15.95;;;;;;;3.88;100.00;93909.53;5112623;28;20511;-69
2022/12/05 01:32:06;;;;;;;21.92;14.43;;;;;;;3.80;100.00;93909.50;5112132;28;20043;-69
2022/12/05 01:34:34;;;;;;;22.35;15.25;;;;;;;3.81;100.00;93898.38;5112343;28;20077;-69
2022/12/05 01:37:01;;;;;;;21.27;14.18;;;;;;;3.79;100.00;93898.53;5112272;28;20047;-69
2022/12/05 01:39:28;;;;;;;21.73;14.88;;;;;;;3.75;100.00;93894.69;5111773;28;20053;-69
2022/12/05 01:41:54;;;;;;;18.60;13.40;;;;;;;3.81;100.00;93889.00;5110907;28;20490;-69
2022/12/05 01:44:58;;;;;;;24.73;15.85;;;;;;;3.74;100.00;93885.47;5109923;28;20093;-69
2022/12/05 01:47:27;;;;;;;20.15;13.77;;;;;;;3.62;100.00;93892.56;5112068;28;20047;-69
2022/12/05 01:49:58;;;;;;;20.05;14.15;;;;;;;3.71;100.00;93893.41;5111998;28;20051;-69
2022/12/05 01:52:27;;;;;;;20.13;13.57;;;;;;;3.79;100.00;93898.53;5111900;28;20052;-69
2022/12/05 01:54:58;;;;;;;19.75;14.43;;;;;;;3.80;100.00;93892.47;5112047;28;20275;-69
2022/12/05 01:57:25;;;;;;;17.67;12.93;;;;;;;3.77;100.00;93899.63;5111819;28;20479;-69
2022/12/05 01:59:58;;;;;;;21.35;13.48;;;;;;;3.76;100.00;93895.47;5112047;28;20048;-69
2022/12/05 02:02:26;;;;;;;18.15;12.18;;;;;;;3.84;100.00;93903.16;5111492;27;20043;-69
2022/12/05 02:05:01;;;;;;;16.15;12.27;;;;;;;3.90;100.00;93899.22;5111846;28;20051;-69
2022/12/05 02:07:29;;;;;;;15.77;11.10;;;;;;;3.89;100.00;93893.31;5111159;28;20461;-70
2022/12/05 02:09:55;;;;;;;16.67;11.43;;;;;;;3.89;100.00;93903.50;5111652;28;20392;-70
2022/12/05 02:12:23;;;;;;;15.20;11.57;;;;;;;3.91;100.00;93906.69;5111710;28;20050;-69
2022/12/05 02:15:13;;;;;;;16.67;11.13;;;;;;;3.93;100.00;93909.09;5111455;28;20048;-69
2022/12/05 02:17:51;;;;;;;17.48;11.57;;;;;;;3.83;100.00;93896.47;5111210;28;20557;-69
2022/12/05 02:20:32;;;;;;;17.77;12.20;;;;;;;3.55;100.00;93891.53;5111210;28;20088;-69
2022/12/05 02:23:24;;;;;;;16.25;10.65;;;;;;;3.57;100.00;93889.66;5111475;28;20393;-69
2022/12/05 02:26:14;;;;;;;16.98;11.57;;;;;;;3.37;100.00;93887.31;5111552;28;20055;-69
2022/12/05 02:29:13;;;;;;;17.92;11.93;;;;;;;3.38;100.00;93888.13;5111282;28;20108;-69
2022/12/05 02:31:47;;;;;;;17.48;11.90;;;;;;;3.39;100.00;93885.44;5110971;28;20479;-69
2022/12/05 02:34:20;;;;;;;18.42;14.07;;;;;;;3.11;100.00;93865.25;5110969;28;20521;-69
2022/12/05 02:36:55;;;;;;;19.88;13.10;;;;;;;3.18;100.00;93883.19;5108127;28;20047;-69
2022/12/05 02:39:29;;;;;;;21.00;14.52;;;;;;;3.07;100.00;93882.47;5110735;28;20116;-69
2022/12/05 02:42:04;;;;;;;32.30;19.38;;;;;;;3.05;100.00;93884.38;5110727;28;20040;-69
2022/12/05 02:44:38;;;;;;;28.30;18.30;;;;;;;3.09;100.00;93884.09;5110679;28;20498;-69
2022/12/05 02:47:08;;;;;;;36.80;23.52;;;;;;;3.16;100.00;93883.34;5110618;28;20048;-69
2022/12/05 02:49:37;;;;;;;28.45;19.42;;;;;;;3.16;100.00;93885.88;5110599;28;20571;-69
2022/12/05 02:52:08;;;;;;;33.67;22.20;;;;;;;3.16;100.00;93880.03;5110419;28;20114;-69
2022/12/05 02:54:39;;;;;;;26.20;18.85;;;;;;;3.23;100.00;93882.78;5110463;28;20047;-69
2022/12/05 02:57:08;;;;;;;26.40;18.67;;;;;;;3.26;100.00;93882.47;5110733;28;20047;-69
2022/12/05 02:59:35;;;;;;;23.88;17.80;;;;;;;3.20;100.00;93876.25;5110763;28;20116;-70
2022/12/05 03:02:01;;;;;;;27.73;19.88;;;;;;;3.19;100.00;93870.38;5110642;28;20043;-69
2022/12/05 03:04:31;;;;;;;26.70;19.13;;;;;;;3.26;100.00;93879.94;5110191;28;20076;-69
2022/12/05 03:07:00;;;;;;;20.20;14.50;;;;;;;3.34;100.00;93870.63;5110433;28;20059;-69
2022/12/05 03:09:34;;;;;;;18.98;13.80;;;;;;;3.36;100.00;93879.81;5110166;28;20855;-69
2022/12/05 03:12:06;;;;;;;21.05;14.95;;;;;;;3.41;100.00;93875.09;5110611;28;20792;-69
2022/12/05 03:14:37;;;;;;;18.75;13.73;;;;;;;3.37;100.00;93863.66;5110249;28;20131;-69
2022/12/05 03:17:09;;;;;;;17.17;12.73;;;;;;;3.37;100.00;93882.22;5110459;28;20100;-69
2022/12/05 03:19:45;;;;;;;15.88;11.80;;;;;;;3.40;100.00;93878.59;5109486;27;20059;-69
2022/12/05 03:22:19;;;;;;;16.98;10.50;;;;;;;3.48;100.00;93879.44;5109811;28;20084;-69
2022/12/05 03:24:45;;;;;;;15.15;10.77;;;;;;;3.53;100.00;93891.72;5110302;28;20051;-69
2022/12/05 03:27:22;;;;;;;17.02;12.48;;;;;;;3.57;100.00;93892.22;5110134;28;20039;-69
2022/12/05 03:29:54;;;;;;;16.58;11.85;;;;;;;3.60;100.00;93892.72;5109781;28;20445;-69
2022/12/05 03:32:27;;;;;;;16.50;12.02;;;;;;;3.63;100.00;93891.59;5110262;28;20461;-69
2022/12/05 03:35:05;;;;;;;16.52;11.70;;;;;;;3.63;100.00;93891.59;5110342;28;20074;-69
2022/12/05 03:37:42;;;;;;;16.60;11.20;;;;;;;3.56;100.00;93893.16;5109581;28;20051;-69
2022/12/05 03:40:19;;;;;;;18.05;12.45;;;;;;;3.59;100.00;93896.19;5109364;28;20047;-69
2022/12/05 03:42:54;;;;;;;19.85;13.45;;;;;;;3.63;100.00;93889.06;5109973;28;20044;-69
2022/12/05 03:45:27;;;;;;;21.45;14.00;;;;;;;3.52;100.00;93863.91;5109688;28;20502;-69
2022/12/05 03:48:00;;;;;;;18.13;12.75;;;;;;;3.67;100.00;93892.91;5109517;28;20043;-69
2022/12/05 03:50:29;;;;;;;16.40;11.88;;;;;;;3.63;100.00;93889.06;5109417;28;20047;-69
2022/12/05 03:53:02;;;;;;;18.48;12.15;;;;;;;3.68;100.00;93888.59;5109902;28;20393;-69
2022/12/05 03:55:33;;;;;;;18.95;13.77;;;;;;;3.66;100.00;93893.84;5109519;28;20132;-69
2022/12/05 03:58:06;;;;;;;17.20;11.65;;;;;;;3.63;100.00;93895.88;5109763;28;20044;-69
2022/12/05 04:00:36;;;;;;;15.35;11.93;;;;;;;3.62;100.00;93892.56;5109728;28;20048;-69
2022/12/05 04:03:08;;;;;;;16.35;11.70;;;;;;;3.57;100.00;93885.38;5109419;28;20054;-68
2022/12/05 04:05:43;;;;;;;18.27;11.75;;;;;;;3.52;100.00;93877.41;5108999;28;20051;-68
2022/12/05 04:08:15;;;;;;;17.75;12.45;;;;;;;3.48;100.00;93873.59;5106612;28;20043;-68
2022/12/05 04:10:48;;;;;;;17.40;11.88;;;;;;;3.45;100.00;93881.50;5109328;28;20119;-69
2022/12/05 04:13:18;;;;;;;16.50;11.82;;;;;;;3.42;100.00;93876.72;5109619;28;20116;-68
2022/12/05 04:18:40;;;;;;;17.90;11.52;;;;;;;3.38;100.00;93876.19;5109436;28;20051;-69
2022/12/05 04:26:36;;;;;;;27.10;17.77;;;;;;;3.31;100.00;93877.75;5109178;28;20035;-69
2022/12/05 04:29:08;;;;;;;21.95;13.55;;;;;;;3.42;100.00;93877.50;5109213;28;20097;-69
2022/12/05 04:31:42;;;;;;;16.17;12.25;;;;;;;3.39;100.00;93882.09;5109481;28;20044;-68
2022/12/05 04:34:13;;;;;;;16.45;11.77;;;;;;;3.46;100.00;93891.50;5108810;28;20083;-68
2022/12/05 04:36:46;;;;;;;15.70;10.40;;;;;;;3.50;100.00;93888.66;5109042;28;20092;-68
2022/12/05 04:39:20;;;;;;;13.32;9.77;;;;;;;3.47;100.00;93887.22;5109012;28;20104;-68
2022/12/05 04:41:51;;;;;;;14.00;10.48;;;;;;;3.54;100.00;93892.50;5109535;28;20480;-68
2022/12/05 04:44:25;;;;;;;23.65;11.15;;;;;;;3.57;100.00;93892.22;5108752;28;20043;-68
2022/12/05 04:46:55;;;;;;;15.90;10.20;;;;;;;3.51;100.00;93896.13;5109159;28;20043;-69
2022/12/05 04:49:27;;;;;;;19.40;12.85;;;;;;;3.46;100.00;93888.97;5108870;28;20101;-69
2022/12/05 04:52:00;;;;;;;20.85;13.02;;;;;;;3.54;100.00;93900.94;5109357;28;20497;-69
2022/12/05 04:54:31;;;;;;;16.25;10.68;;;;;;;3.53;100.00;93898.53;5108818;28;20463;-69
2022/12/05 04:57:08;;;;;;;17.02;12.40;;;;;;;3.52;100.00;93897.72;5108826;28;20055;-69
2022/12/05 04:59:35;;;;;;;18.20;12.70;;;;;;;3.61;100.00;93909.53;5108918;28;20495;-69
2022/12/05 05:02:07;;;;;;;18.48;13.15;;;;;;;3.71;100.00;93909.44;5109180;28;20044;-69
2022/12/05 05:04:37;;;;;;;20.75;13.25;;;;;;;3.81;100.00;93918.72;5108841;28;20043;-69
2022/12/05 05:07:11;;;;;;;19.08;13.07;;;;;;;3.83;100.00;93917.59;5108888;28;20479;-69
2022/12/05 05:09:39;;;;;;;18.73;12.95;;;;;;;3.91;100.00;93924.47;5108537;28;20085;-69
2022/12/05 05:12:07;;;;;;;19.27;12.60;;;;;;;3.96;100.00;93924.03;5109148;28;20259;-69
2022/12/05 05:14:34;;;;;;;19.67;13.45;;;;;;;4.01;100.00;93922.63;5108800;28;20043;-68
2022/12/05 05:17:00;;;;;;;21.05;14.63;;;;;;;4.07;100.00;93923.75;5110848;28;20487;-69
2022/12/05 05:19:27;;;;;;;19.05;14.10;;;;;;;4.14;100.00;93929.03;5112324;28;20117;-69
2022/12/05 05:21:54;;;;;;;18.48;13.10;;;;;;;4.16;100.00;93926.34;5112638;28;20051;-69
2022/12/05 05:24:22;;;;;;;22.35;14.13;;;;;;;4.22;100.00;93931.63;5112346;28;20047;-69
2022/12/05 05:26:49;;;;;;;21.23;14.55;;;;;;;4.14;100.00;93918.88;5112240;28;20039;-69
2022/12/05 05:29:16;;;;;;;21.75;13.73;;;;;;;4.19;100.00;93931.13;5111891;28;20052;-69
2022/12/05 05:31:43;;;;;;;20.38;14.40;;;;;;;4.27;100.00;93936.25;5112450;28;20043;-69
2022/12/05 05:34:11;;;;;;;23.08;15.38;;;;;;;4.34;100.00;93944.06;5109040;28;20047;-69
2022/12/05 05:36:39;;;;;;;22.95;15.25;;;;;;;4.24;100.00;93928.91;5111725;28;20109;-69
2022/12/05 05:39:06;;;;;;;28.52;16.85;;;;;;;4.35;100.00;93943.13;5108967;28;20063;-69
2022/12/05 05:41:36;;;;;;;29.60;17.75;;;;;;;4.37;100.00;93941.22;5112199;28;20112;-69
2022/12/05 05:44:04;;;;;;;25.65;16.63;;;;;;;4.32;100.00;93928.16;5112250;28;20598;-68
2022/12/05 05:46:33;;;;;;;28.67;17.77;;;;;;;4.42;100.00;93949.19;5112070;28;20051;-69
2022/12/05 05:49:00;;;;;;;28.08;17.95;;;;;;;4.47;100.00;93947.00;5112097;28;20047;-69
2022/12/05 05:51:29;;;;;;;26.88;18.23;;;;;;;4.48;100.00;93946.03;5111938;28;20051;-68
2022/12/05 05:53:55;;;;;;;27.95;18.48;;;;;;;4.30;100.00;93910.50;5108315;28;20044;-68
2022/12/05 05:56:22;;;;;;;26.05;16.92;;;;;;;4.49;100.00;93950.16;5109973;28;20044;-69
2022/12/05 05:58:55;;;;;;;26.88;18.00;;;;;;;4.55;100.00;93956.41;5111626;28;20475;-69
2022/12/05 06:01:22;;;;;;;28.35;17.95;;;;;;;4.58;100.00;93951.00;5111198;28;20052;-69
2022/12/05 06:03:50;;;;;;;28.35;18.45;;;;;;;4.57;100.00;93943.53;5111573;28;20043;-69
2022/12/05 06:06:17;;;;;;;29.00;18.90;;;;;;;4.65;100.00;93948.63;5111534;27;20043;-69
2022/12/05 06:08:45;;;;;;;28.25;18.25;;;;;;;4.71;100.00;93949.78;5111336;28;20495;-69
2022/12/05 06:11:14;;;;;;;29.50;18.38;;;;;;;4.75;100.00;93951.03;5111428;28;20068;-69
2022/12/05 06:13:41;;;;;;;30.50;19.10;;;;;;;4.75;100.00;93946.75;5111524;28;20047;-68
2022/12/05 06:16:12;;;;;;;31.15;20.30;;;;;;;4.80;100.00;93949.63;5111236;28;20616;-69
2022/12/05 06:18:38;;;;;;;32.55;20.45;;;;;;;4.77;100.00;93938.97;5111116;28;20363;-69
2022/12/05 06:21:07;;;;;;;38.45;23.27;;;;;;;4.85;100.00;93945.84;5111190;28;20044;-69
2022/12/05 06:23:34;;;;;;;46.97;28.05;;;;;;;4.86;100.00;93940.56;5111298;28;20047;-69
2022/12/05 06:26:01;;;;;;;41.10;25.02;;;;;;;4.84;100.00;93945.03;5110982;28;20564;-69
2022/12/05 06:28:28;;;;;;;30.73;20.90;;;;;;;4.80;100.00;93944.53;5110405;28;20047;-69
2022/12/05 06:30:55;;;;;;;25.75;18.60;;;;;;;4.68;100.00;93940.69;5111159;28;20096;-69
2022/12/05 06:33:23;;;;;;;29.17;20.05;;;;;;;4.55;100.00;93938.59;5111487;28;20048;-69
2022/12/05 06:36:01;;;;;;;28.75;18.85;;;;;;;4.53;100.00;93938.75;5110881;28;20100;-69
2022/12/05 06:38:28;;;;;;;24.08;16.30;;;;;;;4.48;100.00;93945.22;5110625;28;20055;-69
2022/12/05 06:40:55;;;;;;;26.10;16.35;;;;;;;4.52;100.00;93951.59;5110717;28;20092;-68
2022/12/05 06:43:21;;;;;;;25.65;16.10;;;;;;;4.49;100.00;93946.84;5110741;28;20579;-69
2022/12/05 06:45:48;;;;;;;21.48;15.20;;;;;;;4.50;100.00;93940.78;5110850;28;20055;-69
2022/12/05 06:48:17;;;;;;;21.80;16.05;;;;;;;4.39;100.00;93942.66;5106628;28;20487;-69
2022/12/05 06:50:50;;;;;;;22.80;15.80;;;;;;;4.48;100.00;93932.50;5108701;28;20051;-69
2022/12/05 06:53:16;;;;;;;22.75;15.88;;;;;;;4.41;100.00;93945.06;5110266;28;20100;-69
2022/12/05 06:55:43;;;;;;;21.85;15.40;;;;;;;4.37;100.00;93944.56;5110690;28;20088;-69
2022/12/05 06:58:10;;;;;;;19.27;14.68;;;;;;;4.27;100.00;93947.22;5110290;27;20039;-69
2022/12/05 07:03:20;;;;;;;20.45;15.25;;;;;;;4.28;100.00;93943.75;5110858;28;20109;-69
2022/12/05 07:05:49;;;;;;;23.88;16.00;;;;;;;4.30;100.00;93945.34;5110682;28;20044;-69
2022/12/05 07:08:15;;;;;;;26.88;18.00;;;;;;;4.27;100.00;93959.16;5110814;28;20081;-69
2022/12/05 07:10:42;;;;;;;27.25;19.48;;;;;;;4.21;100.00;93952.91;5111076;28;20444;-69
2022/12/05 07:13:09;;;;;;;34.42;23.63;;;;;;;4.14;100.00;93952.75;5110712;28;20104;-69
2022/12/05 07:15:37;;;;;;;30.70;21.50;;;;;;;4.11;100.00;93949.69;5110856;28;20128;-69
2022/12/05 07:18:04;;;;;;;41.70;26.10;;;;;;;4.12;100.00;93953.84;5110611;28;20556;-69
2022/12/05 07:20:30;;;;;;;34.65;24.70;;;;;;;4.10;100.00;93948.91;5110328;28;20112;-69
2022/12/05 07:22:59;;;;;;;61.13;34.53;;;;;;;4.17;100.00;93943.19;5110634;28;20158;-69
2022/12/05 07:25:25;;;;;;;50.78;31.75;;;;;;;4.19;100.00;93942.09;5110173;28;20051;-69
2022/12/05 07:27:52;;;;;;;58.10;33.33;;;;;;;4.14;100.00;93944.31;5110537;28;20120;-69
2022/12/05 07:30:19;;;;;;;33.60;21.73;;;;;;;4.16;100.00;93951.78;5100451;28;20105;-69
2022/12/05 07:32:45;;;;;;;30.00;20.00;;;;;;;4.30;100.00;93950.41;5103820;28;20083;-69
2022/12/05 07:35:12;;;;;;;26.95;17.70;;;;;;;4.38;100.00;93945.34;5095745;28;20491;-69
2022/12/05 07:37:39;;;;;;;30.48;21.40;;;;;;;4.37;100.00;93942.03;5110502;28;20067;-69
2022/12/05 07:40:08;;;;;;;27.05;18.63;;;;;;;4.55;100.00;93947.00;5108532;28;20059;-68
2022/12/05 07:42:35;;;;;;;26.33;18.55;;;;;;;4.64;100.00;93952.91;5110064;28;20124;-68
2022/12/05 07:45:03;;;;;;;20.98;15.05;;;;;;;4.64;100.00;93957.22;5110147;28;20101;-68
2022/12/05 07:47:30;;;;;;;20.17;14.18;;;;;;;4.64;100.00;93944.50;5109812;28;20494;-69
2022/12/05 07:49:57;;;;;;;21.88;16.08;;;;;;;4.78;100.00;93966.78;5109476;28;20044;-69
2022/12/05 07:52:23;;;;;;;20.98;15.70;;;;;;;4.80;100.00;93957.28;5109610;28;20069;-69
2022/12/05 07:54:50;;;;;;;20.73;14.75;;;;;;;4.83;100.00;93958.72;5105039;28;20144;-69
2022/12/05 07:57:18;;;;;;;25.50;17.83;;;;;;;4.80;100.00;93956.47;5099069;28;20128;-69
2022/12/05 07:59:45;;;;;;;23.08;16.35;;;;;;;4.73;100.00;93955.50;5102043;28;20055;-69
2022/12/05 08:02:11;;;;;;;23.33;17.55;;;;;;;4.82;100.00;93960.44;5109942;28;20457;-69
2022/12/05 08:04:38;;;;;;;24.77;17.05;;;;;;;4.76;100.00;93955.97;5110143;28;20120;-69
2022/12/05 08:07:05;;;;;;;26.67;18.13;;;;;;;4.81;100.00;93958.88;5110143;28;20448;-68
2022/12/05 08:09:31;;;;;;;26.15;18.10;;;;;;;4.85;100.00;93954.25;5109710;28;20101;-69
2022/12/05 08:11:58;;;;;;;29.30;21.15;;;;;;;4.91;100.00;93961.25;5109809;28;20465;-69
2022/12/05 08:14:26;;;;;;;30.55;20.98;;;;;;;5.09;100.00;93967.97;5110055;28;20104;-69
2022/12/05 08:16:53;;;;;;;32.00;21.48;;;;;;;5.20;100.00;93969.44;5109898;28;20051;-69
2022/12/05 08:19:20;;;;;;;30.45;21.25;;;;;;;5.36;100.00;93966.09;5109599;28;20553;-69
2022/12/05 08:21:47;;;;;;;30.90;21.45;;;;;;;5.48;100.00;93969.91;5109781;28;20079;-69
2022/12/05 08:24:13;;;;;;;32.13;23.27;;;;;;;5.55;100.00;93969.31;5109941;28;20112;-69
2022/12/05 08:26:40;;;;;;;29.48;20.13;;;;;;;5.57;100.00;93968.19;5109697;28;20043;-69
2022/12/05 08:29:10;;;;;;;70.03;32.38;;;;;;;5.66;100.00;93965.63;5109289;28;20468;-69
2022/12/05 08:31:41;;;;;;;37.58;23.00;;;;;;;5.78;100.00;93969.44;5109415;28;20048;-69
2022/12/05 08:34:07;;;;;;;31.90;21.67;;;;;;;5.72;100.00;93954.78;5109847;28;20418;-69
2022/12/05 08:36:34;;;;;;;33.83;22.65;;;;;;;5.95;100.00;93972.78;5109588;28;20160;-69
2022/12/05 08:39:04;;;;;;;35.60;22.40;;;;;;;6.06;100.00;93973.44;5109616;28;20457;-69
2022/12/05 08:41:31;;;;;;;37.03;25.05;;;;;;;6.10;100.00;93967.84;5109263;28;20097;-69
2022/12/05 08:43:58;;;;;;;40.20;26.15;;;;;;;6.09;100.00;93975.66;5109549;28;20051;-69
2022/12/05 08:46:25;;;;;;;39.10;26.02;;;;;;;5.89;100.00;93976.75;5108780;28;20162;-68
2022/12/05 08:48:53;;;;;;;35.08;23.25;;;;;;;6.01;100.00;93979.78;5108421;28;20123;-69
2022/12/05 08:51:20;;;;;;;35.92;24.13;;;;;;;5.98;100.00;93969.88;5111969;28;20043;-68
2022/12/05 08:53:47;;;;;;;34.30;21.67;;;;;;;6.19;100.00;93983.09;5113301;28;20112;-69
2022/12/05 08:56:14;;;;;;;34.95;23.05;;;;;;;6.23;100.00;93966.53;5113015;28;20058;-69
2022/12/05 08:58:41;;;;;;;37.20;23.48;;;;;;;6.28;100.00;93984.69;5108962;28;20120;-69
2022/12/05 09:01:10;;;;;;;41.45;23.90;;;;;;;6.39;100.00;93988.66;5110800;28;20851;-69
2022/12/05 09:03:37;;;;;;;35.75;23.85;;;;;;;6.33;100.00;93990.09;5110703;28;20075;-69
2022/12/05 09:06:11;;;;;;;46.22;28.67;;;;;;;6.35;100.00;93987.41;5110596;28;20073;-69
2022/12/05 09:08:39;;;;;;;55.50;36.05;;;;;;;6.02;100.00;93978.03;5111077;27;20043;-68
2022/12/05 09:11:07;;;;;;;48.55;34.25;;;;;;;6.00;100.00;93987.59;5111078;28;20048;-69
2022/12/05 09:13:35;;;;;;;41.28;28.52;;;;;;;5.94;100.00;93978.84;5112150;28;20044;-69
2022/12/05 09:16:05;;;;;;;44.10;29.75;;;;;;;6.02;100.00;93990.78;5112916;28;20055;-69
2022/12/05 09:18:32;;;;;;;41.75;27.88;;;;;;;6.10;100.00;93979.78;5112097;28;20229;-69
2022/12/05 09:21:05;;;;;;;44.47;28.67;;;;;;;6.28;100.00;93984.69;5111334;28;20043;-69
2022/12/05 09:23:34;;;;;;;42.13;27.90;;;;;;;6.43;100.00;93986.56;5110059;27;20051;-69
2022/12/05 09:26:01;;;;;;;40.92;25.77;;;;;;;6.50;100.00;93983.22;5112255;28;20047;-69
2022/12/05 09:28:28;;;;;;;35.55;23.92;;;;;;;6.40;100.00;93988.47;5112564;28;20047;-69
2022/12/05 09:31:00;;;;;;;37.15;24.13;;;;;;;6.55;100.00;93983.50;5110405;28;20069;-69
2022/12/05 09:33:27;;;;;;;38.38;24.80;;;;;;;6.60;100.00;93985.56;5110327;28;20039;-69
2022/12/05 09:35:53;;;;;;;37.85;25.15;;;;;;;6.71;100.00;93984.38;5111203;28;20051;-69
2022/12/05 09:38:20;;;;;;;35.15;23.00;;;;;;;6.54;100.00;93981.13;5111302;28;20872;-69
2022/12/05 09:40:54;;;;;;;35.28;21.90;;;;;;;6.41;100.00;93972.22;5111516;28;20043;-70
2022/12/05 09:43:31;;;;;;;36.35;22.92;;;;;;;6.24;100.00;93966.38;5112041;28;20047;-69
2022/12/05 09:46:09;;;;;;;36.28;22.38;;;;;;;6.24;100.00;93965.56;5111273;28;20116;-69
2022/12/05 09:48:39;;;;;;;37.17;23.55;;;;;;;6.13;100.00;93959.88;5099253;28;20047;-69
2022/12/05 09:51:09;;;;;;;32.00;21.35;;;;;;;6.11;100.00;93961.78;5110104;28;20055;-69
2022/12/05 09:53:38;;;;;;;34.22;21.73;;;;;;;6.00;100.00;93946.78;5100982;28;20419;-69
2022/12/05 09:56:16;;;;;;;34.85;18.85;;;;;;;6.12;100.00;93948.06;5104776;28;20052;-69
2022/12/05 09:58:45;;;;;;;45.22;26.02;;;;;;;6.21;100.00;93943.72;5105365;28;20058;-69
2022/12/05 10:01:25;;;;;;;61.92;45.58;;;;;;;6.19;100.00;93942.28;5094126;28;20052;-69
2022/12/05 10:04:07;;;;;;;46.22;30.67;;;;;;;6.39;100.00;93945.28;5111361;28;20057;-69
2022/12/05 10:06:40;;;;;;;115.88;77.97;;;;;;;6.55;100.00;93932.47;5111824;28;20044;-69
2022/12/05 10:09:28;;;;;;;41.65;26.40;;;;;;;6.74;100.00;93933.00;5111954;28;20051;-69
2022/12/05 10:12:03;;;;;;;32.88;22.63;;;;;;;6.80;100.00;93929.78;5111437;28;20055;-69
2022/12/05 10:14:39;;;;;;;32.15;20.85;;;;;;;6.65;100.00;93927.13;5110237;28;20073;-69
2022/12/05 10:17:16;;;;;;;30.83;19.23;;;;;;;6.73;100.00;93928.84;5112038;28;20124;-69
2022/12/05 10:19:47;;;;;;;29.80;20.15;;;;;;;6.86;100.00;93924.97;5110442;28;20487;-70
2022/12/05 10:22:19;;;;;;;33.97;23.05;;;;;;;6.87;100.00;93923.97;5111495;28;20100;-69
2022/12/05 10:24:51;;;;;;;36.15;21.90;;;;;;;7.05;100.00;93916.06;5111312;28;20503;-69
2022/12/05 10:27:25;;;;;;;32.60;20.08;;;;;;;7.10;100.00;93906.13;5111677;28;20126;-69
2022/12/05 10:29:59;;;;;;;30.75;20.48;;;;;;;7.25;100.00;93915.59;5110989;28;20096;-69
2022/12/05 10:32:31;;;;;;;34.33;20.90;;;;;;;7.40;100.00;93913.09;5111403;28;20047;-69
2022/12/05 10:35:15;;;;;;;45.60;24.98;;;;;;;7.56;100.00;93909.59;5111389;28;20077;-69
2022/12/05 10:37:46;;;;;;;35.70;22.85;;;;;;;7.83;100.00;93907.44;5111575;28;20039;-69
2022/12/05 10:40:14;;;;;;;34.03;22.02;;;;;;;7.71;100.00;93910.44;5111225;28;20043;-69
2022/12/05 10:42:43;;;;;;;36.30;21.88;;;;;;;7.68;100.00;93902.31;5111213;28;20495;-69
2022/12/05 10:45:16;;;;;;;66.57;32.05;;;;;;;7.91;100.00;93904.78;5110591;28;20055;-69
2022/12/05 10:47:43;;;;;;;34.30;22.15;;;;;;;7.91;100.00;93901.47;5111102;28;20579;-70
2022/12/05 10:50:22;;;;;;;37.35;23.15;;;;;;;7.92;100.00;93903.03;5111002;28;20047;-70
2022/12/05 10:52:50;;;;;;;35.92;23.55;;;;;;;7.91;100.00;93901.47;5111205;28;20460;-70
2022/12/05 10:55:18;;;;;;;35.15;22.80;;;;;;;7.91;100.00;93902.22;5111292;28;20120;-69
2022/12/05 10:57:51;;;;;;;33.38;22.30;;;;;;;7.51;100.00;93888.88;5111210;28;20112;-69
2022/12/05 11:00:24;;;;;;;37.22;25.08;;;;;;;7.41;100.00;93892.47;5110874;28;20039;-70
2022/12/05 11:02:51;;;;;;;37.00;23.70;;;;;;;7.27;100.00;93877.91;5104877;28;20048;-69
2022/12/05 11:05:28;;;;;;;36.72;22.65;;;;;;;7.34;100.00;93882.16;5110522;28;20051;-69
2022/12/05 11:07:56;;;;;;;37.35;23.33;;;;;;;7.33;100.00;93888.22;5102850;28;20050;-69
2022/12/05 11:10:27;;;;;;;37.22;23.90;;;;;;;7.48;100.00;93885.72;5103682;28;20056;-69
2022/12/05 11:12:58;;;;;;;32.55;20.27;;;;;;;7.41;100.00;93884.78;5109308;28;20044;-69
2022/12/05 11:15:27;;;;;;;27.80;19.17;;;;;;;7.52;100.00;93883.59;5099689;28;20052;-69
2022/12/05 11:17:55;;;;;;;27.00;17.75;;;;;;;7.36;100.00;93889.63;5109249;28;20089;-69
2022/12/05 11:20:40;;;;;;;25.50;17.05;;;;;;;7.45;100.00;93885.25;5093075;28;20097;-69
2022/12/05 11:23:23;;;;;;;30.38;18.40;;;;;;;7.32;100.00;93886.63;5110721;28;20070;-69
2022/12/05 11:25:51;;;;;;;29.55;17.15;;;;;;;7.45;100.00;93880.94;5110336;28;20482;-69
2022/12/05 11:28:32;;;;;;;26.42;15.95;;;;;;;7.28;100.00;93880.28;5110944;28;20063;-69
2022/12/05 11:31:01;;;;;;;25.75;17.08;;;;;;;7.21;100.00;93882.72;5110376;28;20093;-69
2022/12/05 11:33:30;;;;;;;23.52;15.98;;;;;;;7.40;100.00;93878.09;5109252;28;20150;-69
2022/12/05 11:36:02;;;;;;;25.83;14.60;;;;;;;7.35;100.00;93873.50;5106695;28;20060;-69
2022/12/05 11:38:31;;;;;;;22.52;14.52;;;;;;;7.39;100.00;93865.47;5094261;28;20108;-69
2022/12/05 11:41:11;;;;;;;22.95;16.30;;;;;;;7.38;100.00;93853.69;5110455;28;20071;-69